createdAt,value
2017-08-19T00:01:22.163Z,80.40
2017-08-19T00:03:50.525Z,81.23
2017-08-19T00:06:19.130Z,80.05
2017-08-19T00:08:47.482Z,79.74
2017-08-19T00:11:15.855Z,80.77
2017-08-19T00:13:44.727Z,80.16
2017-08-19T00:16:13.860Z,79.47
2017-08-19T00:18:42.214Z,79.95
2017-08-19T00:21:10.913Z,80.39
2017-08-19T00:23:39.406Z,80.13
2017-08-19T00:26:07.755Z,80.11
2017-08-19T00:28:37.587Z,79.53
2017-08-19T00:31:05.950Z,78.95
2017-08-19T00:33:34.357Z,79.07
2017-08-19T00:36:03.270Z,78.27
2017-08-19T00:38:31.644Z,77.76
2017-08-19T00:41:00.007Z,76.57
2017-08-19T00:43:28.669Z,76.11
2017-08-19T00:45:57.064Z,77.47
2017-08-19T00:48:25.417Z,77.90
2017-08-19T00:50:54.109Z,77.58
2017-08-19T00:53:22.438Z,77.41
2017-08-19T00:55:50.802Z,77.12
2017-08-19T00:58:19.366Z,77.50
2017-08-19T01:00:47.716Z,76.51
2017-08-19T01:03:16.811Z,76.59
2017-08-19T01:05:46.246Z,76.08
2017-08-19T01:08:14.590Z,75.77
2017-08-19T01:10:42.942Z,75.99
2017-08-19T01:13:11.547Z,74.96
2017-08-19T01:15:40.647Z,75.54
2017-08-19T01:18:08.990Z,74.98
2017-08-19T01:20:37.505Z,76.15
2017-08-19T01:23:05.860Z,76.25
2017-08-19T01:25:52.362Z,77.18
2017-08-19T01:28:20.706Z,76.19
2017-08-19T01:30:49.073Z,76.42
2017-08-19T01:33:18.113Z,76.76
2017-08-19T01:35:46.457Z,76.90
2017-08-19T01:38:14.806Z,75.96
2017-08-19T01:40:44.208Z,76.04
2017-08-19T01:43:12.578Z,76.60
2017-08-19T01:45:41.720Z,75.73
2017-08-19T01:48:10.309Z,75.56
2017-08-19T01:50:38.650Z,76.08
2017-08-19T01:53:07.762Z,77.14
2017-08-19T01:55:36.654Z,78.37
2017-08-19T01:58:05.062Z,78.21
2017-08-19T02:00:33.420Z,78.75
2017-08-19T02:03:02.105Z,79.46
2017-08-19T02:05:30.454Z,80.37
2017-08-19T02:07:58.794Z,80.30
2017-08-19T02:10:27.313Z,80.98
2017-08-19T02:12:55.654Z,80.72
2017-08-19T02:15:24.003Z,81.00
2017-08-19T02:17:52.586Z,80.91
2017-08-19T02:20:20.936Z,80.60
2017-08-19T02:22:49.306Z,80.39
2017-08-19T02:25:18.130Z,81.18
2017-08-19T02:27:46.503Z,81.05
2017-08-19T02:30:14.856Z,81.15
2017-08-19T02:32:43.375Z,81.45
2017-08-19T02:35:11.746Z,81.88
2017-08-19T02:37:40.126Z,81.75
2017-08-19T02:40:09.225Z,80.90
2017-08-19T02:42:37.603Z,80.53
2017-08-19T02:45:05.946Z,80.50
2017-08-19T02:47:34.873Z,80.54
2017-08-19T02:50:03.233Z,80.39
2017-08-19T02:52:32.375Z,80.72
2017-08-19T02:55:00.953Z,79.72
2017-08-19T02:57:29.296Z,78.62
2017-08-19T02:59:58.437Z,80.41
2017-08-19T03:02:27.124Z,79.28
2017-08-19T03:04:55.503Z,79.35
2017-08-19T03:07:23.861Z,80.41
2017-08-19T03:09:52.397Z,79.66
2017-08-19T03:12:20.725Z,80.04
2017-08-19T03:14:49.093Z,80.14
2017-08-19T03:17:17.870Z,79.50
2017-08-19T03:19:46.278Z,79.83
2017-08-19T03:22:14.624Z,78.68
2017-08-19T03:24:43.546Z,78.69
2017-08-19T03:27:11.885Z,78.70
2017-08-19T03:29:40.233Z,79.35
2017-08-19T03:32:09.194Z,79.71
2017-08-19T03:34:37.543Z,79.78
2017-08-19T03:37:05.882Z,80.31
2017-08-19T03:39:34.432Z,80.21
2017-08-19T03:42:02.782Z,79.74
2017-08-19T03:44:31.911Z,79.95
2017-08-19T03:47:00.698Z,79.56
2017-08-19T03:49:29.043Z,80.08
2017-08-19T03:51:57.424Z,79.52
2017-08-19T03:54:25.956Z,79.27
2017-08-19T03:56:54.329Z,79.04
2017-08-19T03:59:22.723Z,77.89
2017-08-19T04:01:51.386Z,78.19
2017-08-19T04:04:19.753Z,77.63
2017-08-19T04:06:48.113Z,77.81
2017-08-19T04:09:17.223Z,77.99
2017-08-19T04:11:45.551Z,77.82
2017-08-19T04:14:13.898Z,77.57
2017-08-19T04:16:42.656Z,77.77
2017-08-19T04:19:10.990Z,78.02
2017-08-19T04:21:39.334Z,78.26
2017-08-19T04:24:08.186Z,78.74
2017-08-19T04:26:36.527Z,78.97
2017-08-19T04:29:04.891Z,79.03
2017-08-19T04:31:33.641Z,79.06
2017-08-19T04:34:02.777Z,78.49
2017-08-19T04:36:31.146Z,78.97
2017-08-19T04:38:59.841Z,79.14
2017-08-19T04:41:28.183Z,80.10
2017-08-19T04:43:57.294Z,80.00
2017-08-19T04:46:26.737Z,79.44
2017-08-19T04:48:55.092Z,78.91
2017-08-19T04:51:23.447Z,78.66
2017-08-19T04:53:52.053Z,78.69
2017-08-19T04:56:20.408Z,78.26
2017-08-19T04:58:48.775Z,77.67
2017-08-19T05:01:17.331Z,77.48
2017-08-19T05:03:45.678Z,77.23
2017-08-19T05:06:14.022Z,77.69
2017-08-19T05:08:42.877Z,77.60
2017-08-19T05:11:11.230Z,76.70
2017-08-19T05:13:39.623Z,77.18
2017-08-19T05:16:08.382Z,77.70
2017-08-19T05:18:36.740Z,77.01
2017-08-19T05:21:05.111Z,77.46
2017-08-19T05:23:33.629Z,76.79
2017-08-19T05:26:01.966Z,76.16
2017-08-19T05:28:30.331Z,76.54
2017-08-19T05:30:59.201Z,76.51
2017-08-19T05:33:27.571Z,76.78
2017-08-19T05:35:55.927Z,76.18
2017-08-19T05:38:24.829Z,76.46
2017-08-19T05:40:53.177Z,75.79
2017-08-19T05:43:22.305Z,75.24
2017-08-19T05:45:50.887Z,75.04
2017-08-19T05:48:19.237Z,74.84
2017-08-19T05:50:48.358Z,75.21
2017-08-19T05:53:16.959Z,74.82
2017-08-19T05:55:45.317Z,74.33
2017-08-19T05:58:13.672Z,74.35
2017-08-19T06:00:42.526Z,73.66
2017-08-19T06:03:10.866Z,73.09
2017-08-19T06:05:39.227Z,73.04
2017-08-19T06:08:08.651Z,72.64
2017-08-19T06:10:37.007Z,73.08
2017-08-19T06:13:06.123Z,73.11
2017-08-19T06:15:34.753Z,72.41
2017-08-19T06:18:03.109Z,72.32
2017-08-19T06:20:31.467Z,72.79
2017-08-19T06:23:00.277Z,71.89
2017-08-19T06:25:28.663Z,71.62
2017-08-19T06:27:57.015Z,71.92
2017-08-19T06:30:25.819Z,71.24
2017-08-19T06:32:54.268Z,69.83
2017-08-19T06:35:22.630Z,70.22
2017-08-19T06:37:51.255Z,69.50
2017-08-19T06:40:19.642Z,69.62
2017-08-19T06:42:48.035Z,68.77
2017-08-19T06:45:16.946Z,69.98
2017-08-19T06:47:45.330Z,69.23
2017-08-19T06:50:13.721Z,68.71
2017-08-19T06:52:42.404Z,68.22
2017-08-19T06:55:10.770Z,67.50
2017-08-19T06:57:39.145Z,66.83
2017-08-19T07:00:07.666Z,65.87
2017-08-19T07:02:36.033Z,66.23
2017-08-19T07:05:04.414Z,66.52
2017-08-19T07:07:33.103Z,66.85
2017-08-19T07:10:01.469Z,65.38
2017-08-19T07:12:29.828Z,64.88
2017-08-19T07:14:58.485Z,65.65
2017-08-19T07:17:26.837Z,66.04
2017-08-19T07:19:55.959Z,64.12
2017-08-19T07:22:24.764Z,65.62
2017-08-19T07:24:53.141Z,64.40
2017-08-19T07:27:21.513Z,62.97
2017-08-19T07:29:50.394Z,62.26
2017-08-19T07:32:18.773Z,62.35
2017-08-19T07:34:47.132Z,62.72
2017-08-19T07:37:15.845Z,61.50
2017-08-19T07:39:44.226Z,61.07
2017-08-19T07:42:12.579Z,60.38
2017-08-19T07:44:41.146Z,59.53
2017-08-19T07:47:09.495Z,59.91
2017-08-19T07:49:37.871Z,60.06
2017-08-19T07:52:06.522Z,58.53
2017-08-19T07:54:34.871Z,59.15
2017-08-19T07:57:03.217Z,58.93
2017-08-19T07:59:32.180Z,58.53
2017-08-19T08:02:00.533Z,57.48
2017-08-19T08:04:29.673Z,57.51
2017-08-19T08:06:58.461Z,56.52
2017-08-19T08:09:26.844Z,56.94
2017-08-19T08:11:55.203Z,56.35
2017-08-19T08:14:24.087Z,55.81
2017-08-19T08:16:52.478Z,57.60
2017-08-19T08:19:20.826Z,58.03
2017-08-19T08:21:49.356Z,58.05
2017-08-19T08:24:17.725Z,56.76
2017-08-19T08:26:46.088Z,55.16
2017-08-19T08:29:14.787Z,56.13
2017-08-19T08:31:43.201Z,55.22
2017-08-19T08:34:11.586Z,52.26
2017-08-19T08:36:40.447Z,51.99
2017-08-19T08:39:08.778Z,51.62
2017-08-19T08:41:37.895Z,52.40
2017-08-19T08:44:07.409Z,52.98
2017-08-19T08:46:35.836Z,52.62
2017-08-19T08:49:04.212Z,52.17
2017-08-19T08:51:32.755Z,51.15
2017-08-19T08:54:01.127Z,52.55
2017-08-19T08:56:29.503Z,53.15
2017-08-19T08:58:58.427Z,53.09
2017-08-19T09:01:26.812Z,52.19
2017-08-19T09:03:55.185Z,51.76
2017-08-19T09:06:23.720Z,51.55
2017-08-19T09:08:52.842Z,52.04
2017-08-19T09:11:21.186Z,50.87
2017-08-19T09:13:50.141Z,50.02
2017-08-19T09:16:18.568Z,48.56
2017-08-19T09:18:46.922Z,49.16
2017-08-19T09:21:15.785Z,48.42
2017-08-19T09:23:44.122Z,48.46
2017-08-19T09:26:13.260Z,48.64
2017-08-19T09:28:41.865Z,47.45
2017-08-19T09:31:10.232Z,46.63
2017-08-19T09:33:38.600Z,46.40
2017-08-19T09:36:07.288Z,47.87
2017-08-19T09:38:35.626Z,47.38
2017-08-19T09:41:03.992Z,46.21
2017-08-19T09:43:32.710Z,47.64
2017-08-19T09:46:01.085Z,47.85
2017-08-19T09:48:29.477Z,47.13
2017-08-19T09:50:58.195Z,45.67
2017-08-19T09:53:26.572Z,44.40
2017-08-19T09:55:54.944Z,45.69
2017-08-19T09:58:23.501Z,45.70
2017-08-19T10:00:51.876Z,46.68
2017-08-19T10:03:20.257Z,48.63
2017-08-19T10:05:49.039Z,48.27
2017-08-19T10:08:34.903Z,47.25
2017-08-19T10:11:21.457Z,45.64
2017-08-19T10:13:49.806Z,45.21
2017-08-19T10:16:18.159Z,47.02
2017-08-19T10:18:46.793Z,45.02
2017-08-19T10:21:15.179Z,43.97
2017-08-19T10:23:43.563Z,45.80
2017-08-19T10:26:12.548Z,45.66
2017-08-19T10:28:40.935Z,47.19
2017-08-19T10:31:09.318Z,48.45
2017-08-19T10:33:37.903Z,48.46
2017-08-19T10:36:06.250Z,48.93
2017-08-19T10:38:34.606Z,49.21
2017-08-19T10:41:03.444Z,48.84
2017-08-19T10:43:31.814Z,49.25
2017-08-19T10:46:00.153Z,48.89
2017-08-19T10:48:29.041Z,49.09
2017-08-19T10:50:57.388Z,49.66
2017-08-19T10:53:25.729Z,49.15
2017-08-19T10:55:54.407Z,50.56
2017-08-19T10:58:22.790Z,50.93
2017-08-19T11:00:51.173Z,50.91
2017-08-19T11:03:19.954Z,50.43
2017-08-19T11:05:48.293Z,51.57
2017-08-19T11:08:16.627Z,51.82
2017-08-19T11:10:45.485Z,49.65
2017-08-19T11:13:13.839Z,47.77
2017-08-19T11:15:42.181Z,47.42
2017-08-19T11:18:10.876Z,47.39
2017-08-19T11:20:39.257Z,49.37
2017-08-19T11:23:07.621Z,52.38
2017-08-19T11:25:36.507Z,54.53
2017-08-19T11:28:04.863Z,50.77
2017-08-19T11:30:33.999Z,48.02
2017-08-19T11:33:02.974Z,46.98
2017-08-19T11:35:31.327Z,47.54
2017-08-19T11:38:00.467Z,48.07
2017-08-19T11:40:29.125Z,48.40
2017-08-19T11:42:57.484Z,47.18
2017-08-19T11:45:25.830Z,47.04
2017-08-19T11:47:54.356Z,46.21
2017-08-19T11:50:22.746Z,45.59
2017-08-19T11:52:51.090Z,43.82
2017-08-19T11:55:19.941Z,42.92
2017-08-19T11:57:48.323Z,43.14
2017-08-19T12:00:16.697Z,44.47
2017-08-19T12:02:45.366Z,44.39
2017-08-19T12:05:13.711Z,44.99
2017-08-19T12:07:42.083Z,44.81
2017-08-19T12:10:10.773Z,43.49
2017-08-19T12:12:39.157Z,42.19
2017-08-19T12:15:07.476Z,43.45
2017-08-19T12:17:36.429Z,42.13
2017-08-19T12:20:04.804Z,41.44
2017-08-19T12:22:33.178Z,40.91
2017-08-19T12:25:01.727Z,42.66
2017-08-19T12:27:30.058Z,44.59
2017-08-19T12:29:58.413Z,45.75
2017-08-19T12:32:26.954Z,46.09
2017-08-19T12:34:55.309Z,44.47
2017-08-19T12:37:23.693Z,43.21
2017-08-19T12:39:52.419Z,42.50
2017-08-19T12:42:20.792Z,42.65
2017-08-19T12:44:49.159Z,41.27
2017-08-19T12:47:17.781Z,41.35
2017-08-19T12:49:46.134Z,42.88
2017-08-19T12:52:14.510Z,41.07
2017-08-19T12:54:43.186Z,41.58
2017-08-19T12:57:11.536Z,43.16
2017-08-19T12:59:39.894Z,42.08
2017-08-19T13:02:09.609Z,42.30
2017-08-19T13:04:38.020Z,42.35
2017-08-19T13:07:06.379Z,41.05
2017-08-19T13:09:34.929Z,42.52
2017-08-19T13:12:03.313Z,41.28
2017-08-19T13:14:31.653Z,40.50
2017-08-19T13:17:00.279Z,41.97
2017-08-19T13:19:28.632Z,41.30
2017-08-19T13:21:56.996Z,42.46
2017-08-19T13:24:25.673Z,41.79
2017-08-19T13:26:54.204Z,41.03
2017-08-19T13:29:22.575Z,41.05
2017-08-19T13:31:51.226Z,42.55
2017-08-19T13:34:19.592Z,42.68
2017-08-19T13:36:47.921Z,42.71
2017-08-19T13:39:16.466Z,42.28
2017-08-19T13:41:44.815Z,41.39
2017-08-19T13:44:13.177Z,40.95
2017-08-19T13:46:42.088Z,41.39
2017-08-19T13:49:10.459Z,41.79
2017-08-19T13:51:38.823Z,41.58
2017-08-19T13:54:07.470Z,40.63
2017-08-19T13:56:35.863Z,39.85
2017-08-19T13:59:04.247Z,39.56
2017-08-19T14:01:32.902Z,41.50
2017-08-19T14:04:01.276Z,41.37
2017-08-19T14:06:29.628Z,41.72
2017-08-19T14:08:58.364Z,41.64
2017-08-19T14:11:26.726Z,41.71
2017-08-19T14:13:55.126Z,41.86
2017-08-19T14:16:23.934Z,40.05
2017-08-19T14:18:52.302Z,40.57
2017-08-19T14:21:20.652Z,39.97
2017-08-19T14:23:49.414Z,40.17
2017-08-19T14:26:17.768Z,40.62
2017-08-19T14:28:46.159Z,41.03
2017-08-19T14:31:15.348Z,43.33
2017-08-19T14:33:43.702Z,42.42
2017-08-19T14:36:12.031Z,42.16
2017-08-19T14:38:40.572Z,43.15
2017-08-19T14:41:08.925Z,44.88
2017-08-19T14:43:37.305Z,45.46
2017-08-19T14:46:06.089Z,46.11
2017-08-19T14:48:34.432Z,46.73
2017-08-19T14:51:02.789Z,46.95
2017-08-19T14:53:31.401Z,46.79
2017-08-19T14:55:59.757Z,47.36
2017-08-19T14:58:28.127Z,48.24
2017-08-19T15:00:56.871Z,48.26
2017-08-19T15:03:25.249Z,48.22
2017-08-19T15:05:53.619Z,49.23
2017-08-19T15:08:22.548Z,49.45
2017-08-19T15:10:50.910Z,49.57
2017-08-19T15:13:19.282Z,50.19
2017-08-19T15:15:48.044Z,49.36
2017-08-19T15:18:17.184Z,49.40
2017-08-19T15:20:45.522Z,49.68
2017-08-19T15:23:14.238Z,48.44
2017-08-19T15:25:42.616Z,47.61
2017-08-19T15:28:10.973Z,47.04
2017-08-19T15:30:39.707Z,47.88
2017-08-19T15:33:08.128Z,49.12
2017-08-19T15:35:36.506Z,48.38
2017-08-19T15:38:06.091Z,47.75
2017-08-19T15:40:34.422Z,46.32
2017-08-19T15:43:02.823Z,47.50
2017-08-19T15:45:31.609Z,47.40
2017-08-19T15:47:59.967Z,49.07
2017-08-19T15:50:28.331Z,48.26
2017-08-19T15:52:57.014Z,47.45
2017-08-19T15:55:25.380Z,48.20
2017-08-19T15:57:54.507Z,49.01
2017-08-19T16:00:23.517Z,50.13
2017-08-19T16:02:51.871Z,49.90
2017-08-19T16:05:20.251Z,49.62
2017-08-19T16:07:48.781Z,49.23
2017-08-19T16:10:17.136Z,50.36
2017-08-19T16:12:45.517Z,51.34
2017-08-19T16:15:14.223Z,51.70
2017-08-19T16:17:42.568Z,51.27
2017-08-19T16:20:10.998Z,51.18
2017-08-19T16:22:40.321Z,52.42
2017-08-19T16:25:08.694Z,52.33
2017-08-19T16:27:37.060Z,52.70
2017-08-19T16:30:05.693Z,52.93
2017-08-19T16:32:34.041Z,52.88
2017-08-19T16:35:02.419Z,53.33
2017-08-19T16:37:31.077Z,51.67
2017-08-19T16:39:59.450Z,51.72
2017-08-19T16:42:27.808Z,51.77
2017-08-19T16:44:56.409Z,51.96
2017-08-19T16:47:24.794Z,50.50
2017-08-19T16:49:53.154Z,50.56
2017-08-19T16:52:22.028Z,49.09
2017-08-19T16:54:50.407Z,48.06
2017-08-19T16:57:18.769Z,48.65
2017-08-19T16:59:47.689Z,48.89
2017-08-19T17:02:16.037Z,49.50
2017-08-19T17:04:45.199Z,49.16
2017-08-19T17:07:14.125Z,48.89
2017-08-19T17:09:42.477Z,48.76
2017-08-19T17:12:10.857Z,48.94
2017-08-19T17:14:39.444Z,49.27
2017-08-19T17:17:07.794Z,48.68
2017-08-19T17:19:36.181Z,50.09
2017-08-19T17:22:05.071Z,50.34
2017-08-19T17:24:33.464Z,51.36
2017-08-19T17:27:01.813Z,51.74
2017-08-19T17:29:30.895Z,52.57
2017-08-19T17:31:59.249Z,52.36
2017-08-19T17:34:28.392Z,52.21
2017-08-19T17:36:57.179Z,53.52
2017-08-19T17:39:25.536Z,53.76
2017-08-19T17:41:53.892Z,54.57
2017-08-19T17:44:22.604Z,54.24
2017-08-19T17:46:50.941Z,54.75
2017-08-19T17:49:19.284Z,54.85
2017-08-19T17:51:48.205Z,54.79
2017-08-19T17:54:16.565Z,55.19
2017-08-19T17:56:44.929Z,55.65
2017-08-19T17:59:13.450Z,55.97
2017-08-19T18:01:41.835Z,55.96
2017-08-19T18:04:10.964Z,56.27
2017-08-19T18:06:39.739Z,56.02
2017-08-19T18:09:08.079Z,55.89
2017-08-19T18:11:36.498Z,51.90
2017-08-19T18:14:05.729Z,51.48
2017-08-19T18:16:34.078Z,51.69
2017-08-19T18:19:02.424Z,52.64
2017-08-19T18:21:30.961Z,53.23
2017-08-19T18:23:59.309Z,54.47
2017-08-19T18:26:27.660Z,55.27
2017-08-19T18:28:56.308Z,56.10
2017-08-19T18:31:24.653Z,59.89
2017-08-19T18:33:53.910Z,62.57
2017-08-19T18:36:22.538Z,63.73
2017-08-19T18:38:50.975Z,64.89
2017-08-19T18:41:19.356Z,65.28
2017-08-19T18:43:47.894Z,66.39
2017-08-19T18:46:16.265Z,67.46
2017-08-19T18:48:44.659Z,68.61
2017-08-19T18:51:13.216Z,69.00
2017-08-19T18:53:41.574Z,69.32
2017-08-19T18:56:09.924Z,71.17
2017-08-19T18:58:38.736Z,71.08
2017-08-19T19:01:07.146Z,69.42
2017-08-19T19:03:35.511Z,71.26
2017-08-19T19:06:04.190Z,70.93
2017-08-19T19:08:32.518Z,70.59
2017-08-19T19:11:00.891Z,70.59
2017-08-19T19:13:29.425Z,69.66
2017-08-19T19:15:57.758Z,71.14
2017-08-19T19:18:26.125Z,71.28
2017-08-19T19:20:55.031Z,71.15
2017-08-19T19:23:23.384Z,71.59
2017-08-19T19:25:51.744Z,71.15
2017-08-19T19:28:20.266Z,72.64
2017-08-19T19:30:48.609Z,72.55
2017-08-19T19:33:16.952Z,72.71
2017-08-19T19:35:45.609Z,73.83
2017-08-19T19:38:13.975Z,72.38
2017-08-19T19:40:42.353Z,72.54
2017-08-19T19:43:10.851Z,73.41
2017-08-19T19:45:39.236Z,72.97
2017-08-19T19:48:07.592Z,72.65
2017-08-19T19:50:36.758Z,73.08
2017-08-19T19:53:05.131Z,73.66
2017-08-19T19:55:33.495Z,73.27
2017-08-19T19:58:01.923Z,73.24
2017-08-19T20:00:30.339Z,74.35
2017-08-19T20:02:58.756Z,75.73
2017-08-19T20:05:27.607Z,75.18
2017-08-19T20:07:55.988Z,74.27
2017-08-19T20:10:24.354Z,73.67
2017-08-19T20:12:52.787Z,74.48
2017-08-19T20:15:21.175Z,74.39
2017-08-19T20:17:49.568Z,73.46
2017-08-19T20:20:17.979Z,74.72
2017-08-19T20:22:46.396Z,74.59
2017-08-19T20:25:14.781Z,73.80
2017-08-19T20:27:43.282Z,73.54
2017-08-19T20:30:11.705Z,72.91
2017-08-19T20:32:40.118Z,72.84
2017-08-19T20:35:08.528Z,72.77
2017-08-19T20:37:37.668Z,72.86
2017-08-19T20:40:06.082Z,72.80
2017-08-19T20:42:34.540Z,72.69
2017-08-19T20:45:02.891Z,73.25
2017-08-19T20:47:31.293Z,73.56
2017-08-19T20:49:59.756Z,73.00
2017-08-19T20:52:28.114Z,72.70
2017-08-19T20:54:57.207Z,72.62
2017-08-19T20:57:26.409Z,72.70
2017-08-19T20:59:54.763Z,72.33
2017-08-19T21:02:23.135Z,72.68
2017-08-19T21:04:51.597Z,71.88
2017-08-19T21:07:19.972Z,72.46
2017-08-19T21:09:48.351Z,73.11
2017-08-19T21:12:16.868Z,73.19
2017-08-19T21:14:45.232Z,73.30
2017-08-19T21:17:13.573Z,73.19
2017-08-19T21:19:42.093Z,73.31
2017-08-19T21:22:10.475Z,73.54
2017-08-19T21:24:38.862Z,73.93
2017-08-19T21:27:07.258Z,73.64
2017-08-19T21:29:35.656Z,73.59
2017-08-19T21:32:04.038Z,74.21
2017-08-19T21:34:32.520Z,73.72
2017-08-19T21:37:00.912Z,73.42
2017-08-19T21:39:29.270Z,73.71
2017-08-19T21:41:58.408Z,74.01
2017-08-19T21:44:26.815Z,75.40
2017-08-19T21:46:55.224Z,74.83
2017-08-19T21:49:23.711Z,74.26
2017-08-19T21:51:52.062Z,74.27
2017-08-19T21:54:20.490Z,74.24
2017-08-19T21:56:48.967Z,75.70
2017-08-19T21:59:17.364Z,75.76
2017-08-19T22:01:45.840Z,75.69
2017-08-19T22:04:14.274Z,75.58
2017-08-19T22:06:42.630Z,75.39
2017-08-19T22:09:11.052Z,75.17
2017-08-19T22:11:39.471Z,74.75
2017-08-19T22:14:07.846Z,74.32
2017-08-19T22:16:36.185Z,74.21
2017-08-19T22:19:04.792Z,75.14
2017-08-19T22:21:33.142Z,75.30
2017-08-19T22:24:01.524Z,76.21
2017-08-19T22:26:30.677Z,76.11
2017-08-19T22:28:59.067Z,75.88
2017-08-19T22:31:27.432Z,75.30
2017-08-19T22:33:55.841Z,75.06
2017-08-19T22:36:24.234Z,75.26
2017-08-19T22:38:52.601Z,74.66
2017-08-19T22:41:21.039Z,74.80
2017-08-19T22:43:49.396Z,75.59
2017-08-19T22:46:17.752Z,75.63
2017-08-19T22:48:46.160Z,75.70
2017-08-19T22:51:14.505Z,74.65
2017-08-19T22:53:42.866Z,74.84
2017-08-19T22:56:11.262Z,75.05
2017-08-19T22:58:39.636Z,75.11
2017-08-19T23:01:07.982Z,74.82
2017-08-19T23:03:36.791Z,75.49
2017-08-19T23:06:05.146Z,75.41
2017-08-19T23:08:33.506Z,75.55
2017-08-19T23:11:01.911Z,75.00
2017-08-19T23:13:30.290Z,74.88
2017-08-19T23:15:58.644Z,75.66
2017-08-19T23:18:27.045Z,75.11
2017-08-19T23:20:55.369Z,75.47
2017-08-19T23:23:24.478Z,75.15
2017-08-19T23:25:52.954Z,75.72
2017-08-19T23:28:22.070Z,76.21
2017-08-19T23:30:50.418Z,77.24
2017-08-19T23:33:18.799Z,77.23
2017-08-19T23:35:47.141Z,76.96
2017-08-19T23:38:15.663Z,77.77
2017-08-19T23:40:44.053Z,77.61
2017-08-19T23:43:12.403Z,78.33
2017-08-19T23:45:40.769Z,78.22
2017-08-19T23:48:09.291Z,78.10
2017-08-19T23:56:47.926Z,79.19
2017-08-19T23:59:16.672Z,78.80
